Time;durP1;ratioP1;P1;durP2;ratioP2;P2;SDS_P1;SDS_P2;PMS_P1;PMS_P2;Temp;Humidity;BMP_temperature;BMP_pressure;BME280_temperature;BME280_humidity;BME280_pressure;Samples;Min_cycle;Max_cycle;Signal;HPM_P1;HPM_P2
2021/04/09 00:02:18;;;;;;;6.90;5.00;;;6.50;49.40;;;;;;5026517;28;20200;-47
2021/04/09 00:04:44;;;;;;;8.17;5.13;;;6.70;49.40;;;;;;5022775;28;20189;-47
2021/04/09 00:07:11;;;;;;;8.47;5.27;;;6.90;48.80;;;;;;5023041;28;20445;-48
2021/04/09 00:09:36;;;;;;;7.17;4.90;;;6.90;48.50;;;;;;5028501;28;20264;-44
2021/04/09 00:12:02;;;;;;;8.00;5.40;;;6.70;48.60;;;;;;5027852;28;20444;-49
2021/04/09 00:14:28;;;;;;;6.93;4.70;;;6.50;49.00;;;;;;5027737;28;20209;-48
2021/04/09 00:16:54;;;;;;;5.80;5.00;;;6.50;49.50;;;;;;5027902;28;20436;-47
2021/04/09 00:19:24;;;;;;;7.90;5.77;;;6.70;49.30;;;;;;5008041;28;20595;-47
2021/04/09 00:21:50;;;;;;;5.47;4.70;;;6.60;49.30;;;;;;5029521;28;20203;-47
2021/04/09 00:24:15;;;;;;;9.27;5.73;;;6.60;49.20;;;;;;5037608;28;20436;-46
2021/04/09 00:26:42;;;;;;;8.20;5.53;;;6.50;49.60;;;;;;5029994;28;20186;-47
2021/04/09 00:29:08;;;;;;;6.87;5.43;;;6.70;49.50;;;;;;5027267;28;20248;-46
2021/04/09 00:31:35;;;;;;;7.20;5.03;;;6.70;49.30;;;;;;5017582;28;20864;-48
2021/04/09 00:34:01;;;;;;;7.27;5.13;;;6.70;49.00;;;;;;5029698;28;20451;-47
2021/04/09 00:36:27;;;;;;;7.10;5.17;;;6.90;48.90;;;;;;5027556;28;20447;-47
2021/04/09 00:38:53;;;;;;;9.63;6.20;;;7.10;48.60;;;;;;5028097;28;20503;-44
2021/04/09 00:41:19;;;;;;;9.63;5.40;;;7.20;48.10;;;;;;5022464;28;20240;-47
2021/04/09 00:43:45;;;;;;;7.50;5.23;;;7.20;48.00;;;;;;5027399;28;20442;-48
2021/04/09 00:46:11;;;;;;;5.73;5.13;;;7.20;47.80;;;;;;5017531;28;20193;-47
2021/04/09 00:48:37;;;;;;;6.43;5.30;;;7.30;47.70;;;;;;5026444;28;20448;-47
2021/04/09 00:51:05;;;;;;;8.17;5.60;;;6.90;48.00;;;;;;5026406;28;20454;-46
2021/04/09 00:53:31;;;;;;;9.97;5.50;;;6.70;48.70;;;;;;5020350;28;20209;-48
2021/04/09 00:55:57;;;;;;;6.00;5.40;;;6.70;49.20;;;;;;5025942;28;20458;-48
2021/04/09 00:58:23;;;;;;;9.90;5.37;;;6.80;49.00;;;;;;5023240;28;20578;-45
2021/04/09 01:00:49;;;;;;;8.40;5.73;;;6.50;49.30;;;;;;5019963;28;20521;-47
2021/04/09 01:03:15;;;;;;;7.87;5.40;;;6.50;49.40;;;;;;5020618;28;20193;-44
2021/04/09 01:05:41;;;;;;;6.30;5.43;;;6.40;49.60;;;;;;5018149;28;20690;-45
2021/04/09 01:08:07;;;;;;;9.03;5.53;;;6.40;50.10;;;;;;5026491;28;20722;-45
2021/04/09 01:10:33;;;;;;;7.00;5.63;;;6.40;49.90;;;;;;5028890;28;20436;-46
2021/04/09 01:13:00;;;;;;;8.27;5.63;;;6.20;50.10;;;;;;5026863;28;20222;-45
2021/04/09 01:15:25;;;;;;;7.43;5.43;;;6.20;50.30;;;;;;5028716;28;20197;-45
2021/04/09 01:18:08;;;;;;;8.80;5.60;;;6.00;50.50;;;;;;5029893;28;20522;-47
2021/04/09 01:21:03;;;;;;;7.03;4.80;;;6.00;50.80;;;;;;5014486;28;20468;-46
2021/04/09 01:23:54;;;;;;;6.00;5.23;;;6.00;51.00;;;;;;5023965;28;20455;-47
2021/04/09 01:26:28;;;;;;;6.97;5.20;;;6.00;51.00;;;;;;5030750;28;20919;-46
2021/04/09 01:29:07;;;;;;;5.83;4.93;;;6.10;50.70;;;;;;5019351;28;20443;-48
2021/04/09 01:31:46;;;;;;;7.87;5.17;;;6.10;50.60;;;;;;5029188;28;20432;-43
2021/04/09 01:34:14;;;;;;;5.60;4.73;;;6.30;50.20;;;;;;5024611;28;20534;-46
2021/04/09 01:36:47;;;;;;;7.33;5.50;;;6.30;50.00;;;;;;5019006;28;21263;-44
2021/04/09 01:39:24;;;;;;;7.60;5.83;;;6.10;50.10;;;;;;5027897;28;20917;-45
2021/04/09 01:41:52;;;;;;;6.57;5.17;;;6.20;50.40;;;;;;5029520;28;20788;-44
2021/04/09 01:44:22;;;;;;;6.10;5.10;;;6.30;50.20;;;;;;5027648;28;20787;-47
2021/04/09 01:46:52;;;;;;;7.67;5.17;;;6.20;50.30;;;;;;5028081;28;20438;-47
2021/04/09 01:49:19;;;;;;;11.00;5.63;;;6.20;50.50;;;;;;5023739;28;21023;-47
2021/04/09 01:51:45;;;;;;;8.80;5.70;;;5.80;51.10;;;;;;5028968;28;20466;-47
2021/04/09 01:54:13;;;;;;;9.57;5.47;;;5.80;51.70;;;;;;5026606;28;20986;-44
2021/04/09 01:56:40;;;;;;;7.07;5.90;;;5.90;51.40;;;;;;5026735;28;20519;-47
2021/04/09 01:59:07;;;;;;;7.90;6.20;;;5.90;51.60;;;;;;5019748;28;20487;-45
2021/04/09 02:01:35;;;;;;;12.60;6.80;;;5.90;51.30;;;;;;5025920;28;20476;-47
2021/04/09 02:04:01;;;;;;;8.50;5.57;;;6.00;51.30;;;;;;5021427;28;20498;-45
2021/04/09 02:06:28;;;;;;;10.20;5.73;;;5.90;51.10;;;;;;5015374;28;20447;-44
2021/04/09 02:08:54;;;;;;;9.00;6.20;;;6.00;51.00;;;;;;5025194;28;20441;-48
2021/04/09 02:11:21;;;;;;;8.43;5.70;;;5.90;51.20;;;;;;5017946;28;20521;-46
2021/04/09 02:13:49;;;;;;;8.27;5.87;;;5.90;51.30;;;;;;5025671;28;20467;-47
2021/04/09 02:16:16;;;;;;;8.77;6.13;;;5.90;51.10;;;;;;5016229;28;20456;-48
2021/04/09 02:18:42;;;;;;;9.73;5.77;;;6.00;50.90;;;;;;5024785;28;20514;-45
2021/04/09 02:21:08;;;;;;;6.07;4.93;;;6.10;50.60;;;;;;5028859;28;20440;-46
2021/04/09 02:23:33;;;;;;;8.57;5.87;;;6.10;50.60;;;;;;5029558;28;20655;-47
2021/04/09 02:26:00;;;;;;;8.50;5.80;;;6.00;50.60;;;;;;5027922;28;20248;-47
2021/04/09 02:28:27;;;;;;;8.43;5.60;;;6.00;50.70;;;;;;5026352;28;20204;-44
2021/04/09 02:31:05;;;;;;;6.00;5.37;;;5.90;50.80;;;;;;5021892;28;20524;-45
2021/04/09 02:33:34;;;;;;;13.57;6.00;;;6.00;50.80;;;;;;5027690;28;20452;-44
2021/04/09 02:36:09;;;;;;;9.87;5.30;;;6.00;50.70;;;;;;5023384;28;20437;-48
2021/04/09 02:38:36;;;;;;;6.47;5.10;;;6.10;50.60;;;;;;5029037;28;20578;-47
2021/04/09 02:41:02;;;;;;;7.00;5.57;;;6.10;50.90;;;;;;5025452;28;20440;-47
2021/04/09 02:43:29;;;;;;;7.77;5.20;;;6.10;50.30;;;;;;5032178;28;20452;-48
2021/04/09 02:45:56;;;;;;;7.83;5.53;;;6.10;50.40;;;;;;5023133;28;20943;-46
2021/04/09 02:48:29;;;;;;;9.43;5.70;;;5.90;50.60;;;;;;5024637;28;20448;-47
2021/04/09 02:50:59;;;;;;;6.87;6.17;;;5.60;51.10;;;;;;5029044;28;20467;-46
2021/04/09 02:53:28;;;;;;;10.00;6.30;;;5.70;51.70;;;;;;5027995;28;20436;-47
2021/04/09 02:55:56;;;;;;;7.10;6.40;;;5.80;51.50;;;;;;5031938;28;20812;-44
2021/04/09 02:58:22;;;;;;;6.33;5.50;;;5.70;51.30;;;;;;5026818;28;20481;-47
2021/04/09 03:00:50;;;;;;;10.13;6.37;;;5.70;51.70;;;;;;5021092;28;20933;-44
2021/04/09 03:03:17;;;;;;;8.50;5.70;;;5.60;51.80;;;;;;5025932;28;20447;-43
2021/04/09 03:05:44;;;;;;;6.30;5.20;;;5.60;51.90;;;;;;5022317;28;21256;-46
2021/04/09 03:08:12;;;;;;;6.03;5.43;;;5.70;51.80;;;;;;5021648;28;20444;-48
2021/04/09 03:10:39;;;;;;;10.27;5.80;;;5.80;51.50;;;;;;5028149;28;20809;-45
2021/04/09 03:13:05;;;;;;;7.53;5.63;;;5.80;51.30;;;;;;5030333;28;20443;-47
2021/04/09 03:15:58;;;;;;;6.60;5.80;;;5.60;52.10;;;;;;5032311;28;20435;-47
2021/04/09 03:18:28;;;;;;;11.13;5.67;;;5.80;51.90;;;;;;5024747;28;20245;-46
2021/04/09 03:20:54;;;;;;;7.07;5.93;;;5.80;51.30;;;;;;5026182;28;20444;-48
2021/04/09 03:23:21;;;;;;;8.80;6.10;;;5.90;51.20;;;;;;5022903;28;20531;-43
2021/04/09 03:25:47;;;;;;;8.83;5.77;;;6.10;50.80;;;;;;5018510;28;20440;-46
2021/04/09 03:28:13;;;;;;;7.90;5.33;;;6.20;50.50;;;;;;5030258;28;20443;-47
2021/04/09 03:30:39;;;;;;;7.30;6.27;;;6.20;50.30;;;;;;5030641;28;20440;-44
2021/04/09 03:33:05;;;;;;;7.10;5.93;;;6.10;50.40;;;;;;5028935;28;20959;-45
2021/04/09 03:35:31;;;;;;;7.00;5.97;;;6.00;50.60;;;;;;5026184;28;20475;-47
2021/04/09 03:37:57;;;;;;;6.00;5.47;;;6.00;50.70;;;;;;5027824;28;20448;-47
2021/04/09 03:40:22;;;;;;;6.60;5.53;;;5.90;50.60;;;;;;5028838;28;20193;-44
2021/04/09 03:42:48;;;;;;;8.00;5.37;;;5.90;50.60;;;;;;5028711;28;20563;-44
2021/04/09 03:45:14;;;;;;;10.50;6.77;;;5.90;50.80;;;;;;5029091;28;20208;-45
2021/04/09 03:47:40;;;;;;;7.43;5.57;;;5.70;51.20;;;;;;5021174;28;20190;-46
2021/04/09 03:50:07;;;;;;;7.57;6.83;;;5.50;51.60;;;;;;5023624;28;20959;-46
2021/04/09 03:52:33;;;;;;;5.77;4.70;;;5.60;51.70;;;;;;5020890;28;20197;-47
2021/04/09 03:54:58;;;;;;;7.23;5.10;;;5.70;51.50;;;;;;5025506;28;20966;-44
2021/04/09 03:57:24;;;;;;;8.67;5.47;;;5.60;51.30;;;;;;5022342;28;20193;-45
2021/04/09 03:59:49;;;;;;;12.13;6.40;;;5.40;52.00;;;;;;5025732;28;20688;-45
2021/04/09 04:02:15;;;;;;;7.77;6.17;;;5.10;52.60;;;;;;5025259;28;20193;-45
2021/04/09 04:04:41;;;;;;;6.93;5.40;;;5.00;53.10;;;;;;5028927;28;20196;-46
2021/04/09 04:07:06;;;;;;;7.83;5.40;;;5.20;53.10;;;;;;5028703;28;20204;-47
2021/04/09 04:09:32;;;;;;;10.03;5.87;;;5.40;52.60;;;;;;5016215;28;20202;-45
2021/04/09 04:11:58;;;;;;;7.37;6.00;;;5.50;52.00;;;;;;5035392;28;20205;-45
2021/04/09 04:14:24;;;;;;;7.80;5.70;;;5.70;51.60;;;;;;5024564;28;20276;-47
2021/04/09 04:16:50;;;;;;;7.40;5.77;;;5.60;51.90;;;;;;5029103;28;20523;-46
2021/04/09 04:19:17;;;;;;;9.20;6.00;;;5.30;52.30;;;;;;5019897;28;20259;-45
2021/04/09 04:21:43;;;;;;;6.43;5.40;;;5.30;52.80;;;;;;5025461;28;20220;-45
2021/04/09 04:24:09;;;;;;;7.30;5.97;;;5.30;52.60;;;;;;5024318;28;20429;-44
2021/04/09 04:26:35;;;;;;;5.43;4.93;;;5.30;52.50;;;;;;5025297;28;20463;-47
2021/04/09 04:29:01;;;;;;;7.83;5.73;;;5.30;52.40;;;;;;5031046;28;20454;-47
2021/04/09 04:31:27;;;;;;;9.47;6.07;;;5.40;52.30;;;;;;5022532;28;20555;-46
2021/04/09 04:33:52;;;;;;;10.10;6.20;;;5.40;52.40;;;;;;5017869;28;20444;-47
2021/04/09 04:36:18;;;;;;;6.93;5.90;;;5.30;52.60;;;;;;5022067;28;20257;-45
2021/04/09 04:38:44;;;;;;;9.00;5.80;;;5.10;52.70;;;;;;5028879;28;20231;-43
2021/04/09 04:41:10;;;;;;;9.13;6.73;;;5.00;53.20;;;;;;5023092;28;20534;-43
2021/04/09 04:43:36;;;;;;;9.50;6.50;;;5.20;53.10;;;;;;5020389;28;20877;-43
2021/04/09 04:46:01;;;;;;;10.70;5.70;;;5.00;53.00;;;;;;5027039;28;20239;-47
2021/04/09 04:48:27;;;;;;;8.67;5.30;;;4.90;53.10;;;;;;5028556;28;20649;-48
2021/04/09 04:50:53;;;;;;;8.57;5.23;;;5.00;53.30;;;;;;5022662;28;20615;-48
2021/04/09 04:53:19;;;;;;;7.27;5.57;;;5.10;53.20;;;;;;5018349;28;20561;-44
2021/04/09 04:55:45;;;;;;;8.80;5.73;;;5.30;52.80;;;;;;5017277;28;20437;-45
2021/04/09 04:58:10;;;;;;;10.90;6.80;;;5.20;52.50;;;;;;5023622;28;20287;-47
2021/04/09 05:00:36;;;;;;;9.73;6.63;;;5.30;52.60;;;;;;5027967;28;20937;-46
2021/04/09 05:03:02;;;;;;;11.97;7.07;;;5.40;52.30;;;;;;5029407;28;20221;-47
2021/04/09 05:05:27;;;;;;;8.83;6.67;;;5.10;52.70;;;;;;5023392;28;20193;-44
2021/04/09 05:07:53;;;;;;;9.60;6.47;;;5.30;52.90;;;;;;5020942;28;20542;-45
2021/04/09 05:10:18;;;;;;;10.23;6.27;;;5.40;52.60;;;;;;5021469;28;20221;-44
2021/04/09 05:12:44;;;;;;;8.80;5.80;;;5.40;52.30;;;;;;5027335;28;20283;-46
2021/04/09 05:15:10;;;;;;;6.87;5.90;;;5.50;52.10;;;;;;5020676;28;20190;-48
2021/04/09 05:17:36;;;;;;;7.23;5.47;;;5.50;52.10;;;;;;5024162;28;20236;-42
2021/04/09 05:20:05;;;;;;;12.33;5.73;;;5.40;52.40;;;;;;5028805;28;20895;-42
2021/04/09 05:22:30;;;;;;;11.00;5.03;;;5.70;55.00;;;;;;5021484;28;20444;-43
2021/04/09 05:24:56;;;;;;;8.97;5.07;;;6.00;55.30;;;;;;5025109;28;20440;-43
2021/04/09 05:27:22;;;;;;;6.77;5.40;;;6.50;54.40;;;;;;5029729;28;20201;-42
2021/04/09 05:29:47;;;;;;;11.90;5.53;;;6.80;52.40;;;;;;5021528;28;20862;-42
2021/04/09 05:32:13;;;;;;;7.20;5.00;;;7.10;51.40;;;;;;5024251;28;20270;-42
2021/04/09 05:34:39;;;;;;;10.13;5.50;;;7.40;50.30;;;;;;5025483;28;20186;-44
2021/04/09 05:37:05;;;;;;;7.33;5.07;;;7.60;49.60;;;;;;5020967;28;20231;-43
2021/04/09 05:39:31;;;;;;;5.90;5.30;;;7.80;49.00;;;;;;5028661;28;20483;-42
2021/04/09 05:41:57;;;;;;;7.17;5.60;;;7.80;48.70;;;;;;5027116;28;20451;-43
2021/04/09 05:44:22;;;;;;;8.83;5.80;;;7.80;48.40;;;;;;5019682;28;20657;-43
2021/04/09 05:46:48;;;;;;;7.50;5.53;;;8.00;48.30;;;;;;5020581;28;20273;-43
2021/04/09 05:49:14;;;;;;;7.30;6.07;;;8.00;47.80;;;;;;5029376;28;20201;-43
2021/04/09 05:51:40;;;;;;;10.57;6.10;;;8.10;48.00;;;;;;5029203;28;20197;-43
2021/04/09 05:54:05;;;;;;;6.57;4.63;;;8.20;47.40;;;;;;5024260;28;20193;-43
2021/04/09 05:56:31;;;;;;;5.70;4.83;;;8.40;47.10;;;;;;5026125;28;20608;-43
2021/04/09 05:58:57;;;;;;;6.33;5.43;;;8.60;46.80;;;;;;5026859;28;20252;-42
2021/04/09 06:01:23;;;;;;;7.70;5.67;;;8.80;46.30;;;;;;5018061;28;20194;-43
2021/04/09 06:03:49;;;;;;;6.80;6.10;;;8.90;45.70;;;;;;5021719;28;20197;-42
2021/04/09 06:06:15;;;;;;;10.03;5.90;;;9.00;45.60;;;;;;5034675;28;20423;-42
2021/04/09 06:08:41;;;;;;;7.37;5.37;;;9.10;45.80;;;;;;5018592;28;20486;-44
2021/04/09 06:11:07;;;;;;;7.70;5.83;;;9.30;45.30;;;;;;5016906;28;20777;-43
2021/04/09 06:13:33;;;;;;;8.27;6.00;;;9.10;44.50;;;;;;5028461;28;20428;-42
2021/04/09 06:15:59;;;;;;;10.00;6.67;;;9.20;45.00;;;;;;5024655;28;20979;-44
2021/04/09 06:18:24;;;;;;;9.30;6.77;;;9.20;44.80;;;;;;5033980;28;20603;-43
2021/04/09 06:20:50;;;;;;;7.63;6.10;;;8.70;45.50;;;;;;5029294;28;20200;-42
2021/04/09 06:23:16;;;;;;;5.83;5.20;;;9.00;45.90;;;;;;5032569;28;20277;-42
2021/04/09 06:25:41;;;;;;;6.33;5.57;;;9.20;45.60;;;;;;5025744;28;20264;-43
2021/04/09 06:28:07;;;;;;;6.40;5.80;;;9.50;45.20;;;;;;5026185;28;20279;-43
2021/04/09 06:30:33;;;;;;;6.53;5.90;;;9.40;44.80;;;;;;5031874;28;20225;-42
2021/04/09 06:32:58;;;;;;;8.10;5.63;;;9.50;45.00;;;;;;5033208;28;20323;-45
2021/04/09 06:35:24;;;;;;;6.10;5.50;;;9.50;44.90;;;;;;5025656;28;20244;-43
2021/04/09 06:37:49;;;;;;;6.13;5.53;;;9.60;44.70;;;;;;5020887;28;20234;-43
2021/04/09 06:40:15;;;;;;;5.93;5.03;;;9.70;44.60;;;;;;5028532;28;20689;-42
2021/04/09 06:42:44;;;;;;;6.40;5.30;;;10.00;43.30;;;;;;5023037;28;20228;-44
2021/04/09 06:45:11;;;;;;;7.60;5.40;;;10.10;43.10;;;;;;5023784;28;20444;-42
2021/04/09 06:47:37;;;;;;;6.00;5.40;;;10.40;43.00;;;;;;5029517;28;20444;-43
2021/04/09 06:50:04;;;;;;;8.13;5.70;;;10.30;42.20;;;;;;5028374;28;20797;-44
2021/04/09 06:52:30;;;;;;;7.30;5.10;;;10.10;42.70;;;;;;5030858;28;20250;-42
2021/04/09 06:54:59;;;;;;;10.80;6.10;;;10.00;42.80;;;;;;5032245;28;20503;-43
2021/04/09 06:57:27;;;;;;;6.90;5.70;;;10.00;43.10;;;;;;5032460;28;20185;-43
2021/04/09 06:59:56;;;;;;;6.03;5.43;;;10.00;43.50;;;;;;5032908;28;20487;-43
2021/04/09 07:02:22;;;;;;;9.53;6.10;;;10.20;43.20;;;;;;5027976;28;20498;-42
2021/04/09 07:04:47;;;;;;;8.73;5.57;;;10.60;42.70;;;;;;5023688;28;20931;-42
2021/04/09 07:07:16;;;;;;;9.63;5.43;;;;;;;;;;5024800;28;20202;-43
2021/04/09 07:09:43;;;;;;;9.90;5.67;;;11.40;41.30;;;;;;5028118;28;20286;-41
2021/04/09 07:12:25;;;;;;;10.37;5.20;;;11.60;40.80;;;;;;5022918;28;20432;-42
2021/04/09 07:14:56;;;;;;;6.63;5.77;;;11.90;40.30;;;;;;5029499;28;20451;-42
2021/04/09 07:17:36;;;;;;;8.93;5.27;;;11.70;39.40;;;;;;5016835;28;20473;-45
2021/04/09 07:20:18;;;;;;;5.97;5.37;;;11.70;40.00;;;;;;5017698;28;20495;-42
2021/04/09 07:22:55;;;;;;;10.37;5.47;;;11.90;39.70;;;;;;5023086;28;20447;-43
2021/04/09 07:25:25;;;;;;;6.07;5.30;;;12.20;39.50;;;;;;5024279;28;20962;-45
2021/04/09 07:28:18;;;;;;;7.30;5.57;;;12.30;38.70;;;;;;5017703;28;20437;-45
2021/04/09 07:30:53;;;;;;;5.80;5.20;;;12.60;38.30;;;;;;5015508;28;20480;-42
2021/04/09 07:33:23;;;;;;;6.50;5.57;;;12.90;38.00;;;;;;5021013;28;20440;-43
2021/04/09 07:35:51;;;;;;;6.73;5.10;;;13.20;37.70;;;;;;5027889;28;20492;-41
2021/04/09 07:38:33;;;;;;;4.90;4.30;;;13.20;37.20;;;;;;5023141;28;20487;-42
2021/04/09 07:41:10;;;;;;;5.30;4.50;;;13.30;37.00;;;;;;5021863;28;20462;-42
2021/04/09 07:43:41;;;;;;;8.00;4.20;;;13.50;36.80;;;;;;5022473;28;20788;-41
2021/04/09 07:46:18;;;;;;;10.40;4.37;;;13.40;36.40;;;;;;5023605;28;20530;-42
2021/04/09 07:48:44;;;;;;;8.10;5.00;;;13.60;35.90;;;;;;5024857;28;20502;-43
2021/04/09 07:51:17;;;;;;;4.97;4.47;;;13.80;35.20;;;;;;5017017;28;20453;-43
2021/04/09 07:53:44;;;;;;;6.80;5.13;;;14.00;34.90;;;;;;5029709;28;20211;-44
2021/04/09 07:56:18;;;;;;;6.83;5.30;;;14.20;35.00;;;;;;5025910;28;20440;-43
2021/04/09 07:58:44;;;;;;;6.80;5.00;;;14.40;35.20;;;;;;5031244;28;20813;-44
2021/04/09 08:01:26;;;;;;;5.20;4.70;;;14.60;34.80;;;;;;5030680;28;21286;-43
2021/04/09 08:03:53;;;;;;;5.17;4.00;;;14.90;35.20;;;;;;5039679;28;20456;-44
2021/04/09 08:06:23;;;;;;;6.47;5.07;;;15.00;34.60;;;;;;5039165;28;20478;-42
2021/04/09 08:08:49;;;;;;;6.43;4.60;;;15.20;34.40;;;;;;5042956;28;20935;-43
2021/04/09 08:11:35;;;;;;;9.57;5.57;;;15.20;34.10;;;;;;5035050;28;20443;-42
2021/04/09 08:14:10;;;;;;;7.20;4.97;;;15.00;33.80;;;;;;5032694;28;20181;-43
2021/04/09 08:16:41;;;;;;;7.90;5.00;;;15.00;34.10;;;;;;5042903;28;20538;-43
2021/04/09 08:19:17;;;;;;;5.77;5.10;;;15.20;34.70;;;;;;5040070;28;20487;-43
2021/04/09 08:21:50;;;;;;;6.93;5.07;;;15.30;34.30;;;;;;5039018;28;20444;-42
2021/04/09 08:24:17;;;;;;;9.53;4.37;;;15.30;33.60;;;;;;5034801;28;20533;-43
2021/04/09 08:26:43;;;;;;;7.27;5.10;;;15.20;33.90;;;;;;5041506;28;20944;-44
2021/04/09 08:29:11;;;;;;;6.23;4.90;;;15.10;33.30;;;;;;5036945;28;20423;-43
2021/04/09 08:31:38;;;;;;;6.83;4.50;;;15.10;33.30;;;;;;5035605;28;20276;-42
2021/04/09 08:34:06;;;;;;;6.00;5.40;;;15.20;33.40;;;;;;5038343;28;20479;-44
2021/04/09 08:36:32;;;;;;;7.27;4.67;;;15.30;33.10;;;;;;5034665;28;20427;-44
2021/04/09 08:39:01;;;;;;;7.80;4.57;;;15.10;33.00;;;;;;5030188;28;20495;-44
2021/04/09 08:41:27;;;;;;;6.57;4.80;;;15.20;33.30;;;;;;5030698;28;20450;-44
2021/04/09 08:43:53;;;;;;;6.07;3.93;;;15.30;33.20;;;;;;5044711;28;20455;-44
2021/04/09 08:46:19;;;;;;;5.43;4.30;;;15.50;32.50;;;;;;5038976;28;20423;-42
2021/04/09 08:48:47;;;;;;;5.47;4.10;;;15.50;32.40;;;;;;5042597;28;20427;-42
2021/04/09 08:51:14;;;;;;;7.10;4.53;;;15.50;31.80;;;;;;5045522;28;20550;-45
2021/04/09 08:53:40;;;;;;;5.20;4.70;;;15.50;31.70;;;;;;5040752;28;20446;-42
2021/04/09 08:56:06;;;;;;;6.70;4.40;;;15.30;31.90;;;;;;5038117;28;20810;-43
2021/04/09 08:58:46;;;;;;;4.63;3.50;;;15.30;31.60;;;;;;5041707;28;20215;-42
2021/04/09 09:01:13;;;;;;;4.90;3.27;;;15.40;31.50;;;;;;5029505;28;20432;-42
2021/04/09 09:03:39;;;;;;;4.47;3.33;;;15.50;30.50;;;;;;5037325;28;20434;-43
2021/04/09 09:06:09;;;;;;;7.00;3.80;;;15.80;30.30;;;;;;5041509;28;21320;-44
2021/04/09 09:08:50;;;;;;;5.10;3.60;;;16.00;29.90;;;;;;5041668;28;20481;-43
2021/04/09 09:11:51;;;;;;;5.27;3.83;;;16.20;29.20;;;;;;5034782;28;20851;-44
2021/04/09 09:14:36;;;;;;;5.47;4.33;;;16.40;28.90;;;;;;5038792;28;20446;-43
2021/04/09 09:17:20;;;;;;;4.53;3.73;;;16.30;28.70;;;;;;5019309;28;20531;-43
2021/04/09 09:20:07;;;;;;;5.17;4.67;;;16.40;29.30;;;;;;5030990;28;20521;-43
2021/04/09 09:22:47;;;;;;;4.20;3.40;;;16.20;29.30;;;;;;5035427;28;20479;-47
2021/04/09 09:25:13;;;;;;;3.30;3.00;;;16.40;29.10;;;;;;5030257;28;20953;-43
2021/04/09 09:27:52;;;;;;;4.40;3.30;;;16.70;28.40;;;;;;5037735;28;20435;-44
2021/04/09 09:30:38;;;;;;;3.80;3.37;;;16.80;27.90;;;;;;5033111;28;20443;-44
2021/04/09 09:33:25;;;;;;;3.30;2.83;;;16.70;27.00;;;;;;5031526;28;20440;-47
2021/04/09 09:36:03;;;;;;;4.70;3.23;;;16.70;27.20;;;;;;5031871;28;20498;-45
2021/04/09 09:38:49;;;;;;;3.53;3.23;;;16.50;27.20;;;;;;5018309;28;20471;-43
2021/04/09 09:41:40;;;;;;;3.83;3.10;;;16.50;27.40;;;;;;5024834;28;20440;-44
2021/04/09 09:44:28;;;;;;;6.10;3.87;;;16.70;27.90;;;;;;5020850;28;20441;-41
2021/04/09 09:46:59;;;;;;;4.33;3.20;;;16.70;27.40;;;;;;5016772;28;20594;-42
2021/04/09 09:49:26;;;;;;;5.50;3.83;;;16.70;27.30;;;;;;5021644;28;20448;-41
2021/04/09 09:51:51;;;;;;;4.83;3.33;;;16.60;27.40;;;;;;5026711;28;20432;-43
2021/04/09 09:54:26;;;;;;;4.23;3.60;;;16.70;27.50;;;;;;5023614;28;20428;-42
2021/04/09 09:56:52;;;;;;;3.30;3.00;;;16.80;27.50;;;;;;5026877;28;20189;-42
2021/04/09 09:59:20;;;;;;;5.40;3.43;;;16.70;26.90;;;;;;5031779;28;20998;-42
2021/04/09 10:01:59;;;;;;;5.83;3.40;;;16.80;27.30;;;;;;5032292;28;20443;-43
2021/04/09 10:04:25;;;;;;;4.47;3.40;;;16.90;27.50;;;;;;5026655;28;20454;-42
2021/04/09 10:06:55;;;;;;;5.30;3.10;;;17.00;27.10;;;;;;5038596;28;20814;-42
2021/04/09 10:09:31;;;;;;;4.43;3.53;;;17.10;27.00;;;;;;5040500;28;20965;-42
2021/04/09 10:12:00;;;;;;;4.83;3.90;;;17.20;27.00;;;;;;5042357;28;20431;-43
2021/04/09 10:14:28;;;;;;;4.40;3.57;;;17.40;27.60;;;;;;5040243;28;20425;-42
2021/04/09 10:16:55;;;;;;;3.67;3.30;;;17.50;27.50;;;;;;5044975;28;20926;-42
2021/04/09 10:19:20;;;;;;;6.07;3.40;;;17.40;27.30;;;;;;5037421;28;20991;-42
2021/04/09 10:21:46;;;;;;;3.87;3.43;;;17.60;27.50;;;;;;5047125;28;20427;-42
2021/04/09 10:24:15;;;;;;;4.17;3.57;;;17.90;27.60;;;;;;5037141;28;20188;-42
2021/04/09 10:26:49;;;;;;;6.03;3.50;;;17.80;26.80;;;;;;5034473;28;20208;-44
2021/04/09 10:29:24;;;;;;;3.53;3.20;;;18.00;26.80;;;;;;5035826;28;20521;-43
2021/04/09 10:31:51;;;;;;;3.73;3.37;;;18.10;26.90;;;;;;5027857;28;20444;-45
2021/04/09 10:34:24;;;;;;;4.87;3.20;;;18.30;26.80;;;;;;5032532;28;20444;-46
2021/04/09 10:36:50;;;;;;;4.43;3.10;;;18.40;26.70;;;;;;5039098;28;20458;-46
2021/04/09 10:39:19;;;;;;;3.17;2.87;;;18.60;26.10;;;;;;5041242;28;20522;-44
2021/04/09 10:41:46;;;;;;;9.17;3.77;;;18.50;25.60;;;;;;5043448;28;20184;-43
2021/04/09 10:44:17;;;;;;;4.00;3.20;;;18.20;26.00;;;;;;5031481;28;20516;-44
2021/04/09 10:47:00;;;;;;;4.57;3.00;;;18.40;26.20;;;;;;5039071;28;20452;-43
2021/04/09 10:49:29;;;;;;;7.50;3.80;;;18.40;26.20;;;;;;5045183;28;20438;-44
2021/04/09 10:51:57;;;;;;;3.60;3.03;;;18.20;25.80;;;;;;5032985;28;20447;-46
2021/04/09 10:54:25;;;;;;;4.00;3.10;;;18.10;25.70;;;;;;5043861;28;20427;-45
2021/04/09 10:56:52;;;;;;;4.00;2.60;;;18.00;25.80;;;;;;5045535;28;20477;-43
2021/04/09 10:59:18;;;;;;;4.33;2.90;;;18.00;25.70;;;;;;5044121;28;20548;-46
2021/04/09 11:01:44;;;;;;;3.20;2.90;;;18.30;25.60;;;;;;5043626;28;20489;-43
2021/04/09 11:04:14;;;;;;;3.93;2.90;;;18.50;25.50;;;;;;5038799;28;20535;-44
2021/04/09 11:06:40;;;;;;;4.03;3.10;;;18.60;25.30;;;;;;5041384;28;20225;-47
2021/04/09 11:09:12;;;;;;;4.27;3.20;;;18.70;25.50;;;;;;5039149;28;20455;-46
2021/04/09 11:11:41;;;;;;;2.80;2.60;;;18.50;25.40;;;;;;5044019;28;20185;-45
2021/04/09 11:14:17;;;;;;;3.90;2.90;;;18.50;25.50;;;;;;5025541;28;20423;-43
2021/04/09 11:16:58;;;;;;;5.50;2.93;;;18.70;25.40;;;;;;5033072;28;20508;-45
2021/04/09 11:19:38;;;;;;;3.53;2.70;;;18.50;25.50;;;;;;5032222;28;20886;-48
2021/04/09 11:22:06;;;;;;;3.30;2.60;;;18.40;24.90;;;;;;5046676;28;20926;-44
2021/04/09 11:24:36;;;;;;;6.63;3.07;;;18.50;25.00;;;;;;5042147;28;20949;-47
2021/04/09 11:27:18;;;;;;;4.60;2.70;;;18.50;25.10;;;;;;5039681;28;20462;-45
2021/04/09 11:29:45;;;;;;;4.30;2.70;;;18.20;25.30;;;;;;5043584;28;20428;-45
2021/04/09 11:32:12;;;;;;;3.70;2.90;;;18.40;25.40;;;;;;5038645;28;20491;-47
2021/04/09 11:34:41;;;;;;;4.30;3.10;;;18.60;25.40;;;;;;5042828;28;20428;-46
2021/04/09 11:37:07;;;;;;;4.30;2.87;;;18.50;25.60;;;;;;5045125;28;20431;-45
2021/04/09 11:39:32;;;;;;;4.60;2.43;;;18.60;26.00;;;;;;5040225;28;20475;-44
2021/04/09 11:42:01;;;;;;;3.27;2.53;;;18.50;25.50;;;;;;5034327;28;20194;-44
2021/04/09 11:44:34;;;;;;;4.63;2.90;;;18.20;25.60;;;;;;5043060;28;20192;-43
2021/04/09 11:47:20;;;;;;;2.80;2.60;;;18.30;25.50;;;;;;5040790;28;20436;-45
2021/04/09 11:49:47;;;;;;;4.20;2.90;;;18.20;25.20;;;;;;5024146;28;20464;-44
2021/04/09 11:52:13;;;;;;;5.43;2.33;;;18.30;25.10;;;;;;5030616;28;20916;-43
2021/04/09 11:54:41;;;;;;;3.30;2.53;;;18.50;25.20;;;;;;5031288;28;20504;-47
2021/04/09 11:57:27;;;;;;;3.70;2.90;;;18.40;25.30;;;;;;5044843;28;20196;-45
2021/04/09 11:59:54;;;;;;;5.93;2.50;;;18.40;25.30;;;;;;5040363;28;20483;-43
2021/04/09 12:02:26;;;;;;;4.40;3.40;;;18.40;25.40;;;;;;5034271;28;20828;-43
2021/04/09 12:04:53;;;;;;;2.57;2.17;;;18.40;25.60;;;;;;5045200;28;20847;-44
2021/04/09 12:07:28;;;;;;;5.40;2.90;;;18.50;25.70;;;;;;5042960;28;20494;-44
2021/04/09 12:09:55;;;;;;;3.23;2.77;;;18.60;25.80;;;;;;5040137;28;20442;-45
2021/04/09 12:12:22;;;;;;;4.97;2.90;;;18.80;26.10;;;;;;5040438;28;20435;-43
2021/04/09 12:14:56;;;;;;;4.70;2.97;;;19.00;25.90;;;;;;5028287;28;20490;-43
2021/04/09 12:17:23;;;;;;;4.50;2.57;;;18.80;25.80;;;;;;5024576;28;20479;-46
2021/04/09 12:19:51;;;;;;;5.90;3.20;;;18.90;25.00;;;;;;5035751;28;20498;-47
2021/04/09 12:22:17;;;;;;;2.70;2.50;;;19.10;25.10;;;;;;5024391;28;20922;-45
2021/04/09 12:24:44;;;;;;;6.37;3.10;;;19.50;25.20;;;;;;5035832;28;20436;-42
2021/04/09 12:27:11;;;;;;;3.40;2.80;;;19.60;25.00;;;;;;5040529;28;21314;-43
2021/04/09 12:29:37;;;;;;;4.70;2.63;;;19.90;24.40;;;;;;5036610;28;20514;-42
2021/04/09 12:32:05;;;;;;;4.87;2.50;;;19.90;24.20;;;;;;5034353;28;20427;-42
2021/04/09 12:34:31;;;;;;;3.70;2.70;;;19.90;24.20;;;;;;5021907;28;20443;-42
2021/04/09 12:36:56;;;;;;;3.47;2.30;;;20.10;24.70;;;;;;5025081;28;20782;-44
2021/04/09 12:39:23;;;;;;;3.17;2.53;;;20.20;24.30;;;;;;5030854;28;20634;-43
2021/04/09 12:41:49;;;;;;;4.33;2.87;;;20.30;24.10;;;;;;5027100;28;20204;-43
2021/04/09 12:44:15;;;;;;;2.33;2.13;;;20.00;23.70;;;;;;5034789;28;20424;-42
2021/04/09 12:46:42;;;;;;;3.20;2.77;;;20.10;24.10;;;;;;5029980;28;20239;-42
2021/04/09 12:49:08;;;;;;;4.67;2.70;;;20.30;23.70;;;;;;5024911;28;20949;-42
2021/04/09 12:51:34;;;;;;;3.00;2.70;;;20.30;23.40;;;;;;5025270;28;20424;-42
2021/04/09 12:54:00;;;;;;;6.53;2.83;;;20.40;24.00;;;;;;5030991;28;20208;-42
2021/04/09 12:56:26;;;;;;;5.17;2.77;;;20.50;23.70;;;;;;5030977;28;20424;-42
2021/04/09 12:58:52;;;;;;;3.80;2.60;;;20.80;23.50;;;;;;5027178;28;20546;-42
2021/04/09 13:01:17;;;;;;;4.50;2.73;;;20.80;23.10;;;;;;5016776;28;20236;-42